Terminal Aerodrome Forecast
Issued by NWS

Home | Current Version | Previous Version | Text Only | Print | Product List | Glossary On
Versions: 1 2 3 4 5 6 7 8 9 10 11 12 13 14 15 16 17 18 19 20 21 22
266
FTUS46 KSEW 102332
TAFSEA
TAF
KSEA 102332Z 1100/1206 13008KT P6SM -SHRA BKN035 OVC050
     FM110200 13006KT P6SM VCSH BKN035 BKN080
     FM110900 09005KT P6SM BKN030 OVC080
     FM111300 02006KT P6SM SCT040 OVC060
     FM112100 02006KT P6SM -RA OVC050
     FM120200 04006KT 5SM -RA OVC030=

USA.gov is the U.S. government's official web portal to all federal, state and local government web resources and services.